createdAt,value
2016-05-27T00:00:00.075Z,91.1
2016-05-27T00:00:10.059Z,91.1
2016-05-27T00:00:20.090Z,91
2016-05-27T00:00:29.996Z,90.8
2016-05-27T00:00:39.950Z,91.1
2016-05-27T00:00:50.043Z,90.7
2016-05-27T00:00:59.764Z,90.9
2016-05-27T00:01:10.061Z,90.9
2016-05-27T00:01:20.108Z,91
2016-05-27T00:01:30.123Z,91.4
2016-05-27T00:01:40.077Z,91.2
2016-05-27T00:01:50.030Z,91.2
2016-05-27T00:02:00.048Z,91.1
2016-05-27T00:02:10.048Z,91.2
2016-05-27T00:02:20.017Z,91
2016-05-27T00:02:30.017Z,91
2016-05-27T00:02:40.095Z,91.3
2016-05-27T00:02:49.923Z,91
2016-05-27T00:03:00.051Z,90.9
2016-05-27T00:03:09.879Z,91.1
2016-05-27T00:03:20.098Z,90.9
2016-05-27T00:03:30.817Z,91.1
2016-05-27T00:03:39.911Z,91.1
2016-05-27T00:03:49.864Z,90.8
2016-05-27T00:04:00.070Z,90.7
2016-05-27T00:04:10.570Z,91
2016-05-27T00:04:20.492Z,90.8
2016-05-27T00:04:29.836Z,90.6
2016-05-27T00:04:40.007Z,90.9
2016-05-27T00:04:49.992Z,90.9
2016-05-27T00:05:00.009Z,91
2016-05-27T00:05:09.978Z,90.9
2016-05-27T00:05:20.041Z,90.6
2016-05-27T00:05:29.994Z,90.7
2016-05-27T00:05:39.853Z,90.9
2016-05-27T00:05:49.822Z,90.8
2016-05-27T00:06:00.012Z,91.1
2016-05-27T00:06:09.966Z,90.8
2016-05-27T00:06:19.966Z,90.8
2016-05-27T00:06:29.966Z,90.8
2016-05-27T00:06:39.997Z,90.7
2016-05-27T00:06:49.997Z,91.1
2016-05-27T00:06:59.953Z,90.8
2016-05-27T00:07:09.953Z,91
2016-05-27T00:07:19.844Z,91.3
2016-05-27T00:07:29.937Z,90.9
2016-05-27T00:07:39.797Z,90.9
2016-05-27T00:07:49.781Z,90.9
2016-05-27T00:07:59.814Z,90.8
2016-05-27T00:08:09.924Z,90.8
2016-05-27T00:08:19.971Z,91.1
2016-05-27T00:08:29.924Z,90.6
2016-05-27T00:08:39.955Z,91
2016-05-27T00:08:49.908Z,91
2016-05-27T00:08:59.927Z,90.6
2016-05-27T00:09:09.927Z,90.8
2016-05-27T00:09:19.958Z,90.6
2016-05-27T00:09:29.755Z,90.8
2016-05-27T00:09:39.770Z,91.3
2016-05-27T00:09:49.911Z,91.1
2016-05-27T00:09:59.758Z,90.8
2016-05-27T00:10:09.789Z,91.3
2016-05-27T00:10:19.898Z,91.1
2016-05-27T00:10:29.914Z,91.2
2016-05-27T00:10:39.898Z,90.9
2016-05-27T00:10:49.883Z,91
2016-05-27T00:10:59.900Z,90.8
2016-05-27T00:11:09.885Z,90.8
2016-05-27T00:11:19.916Z,90.9
2016-05-27T00:11:29.885Z,90.9
2016-05-27T00:11:39.979Z,90.8
2016-05-27T00:11:49.900Z,90.8
2016-05-27T00:11:59.872Z,90.9
2016-05-27T00:12:09.857Z,91.1
2016-05-27T00:12:19.888Z,91.1
2016-05-27T00:12:29.872Z,90.9
2016-05-27T00:12:39.888Z,91
2016-05-27T00:12:49.841Z,91.1
2016-05-27T00:12:59.921Z,91
2016-05-27T00:13:09.843Z,91.1
2016-05-27T00:13:19.874Z,91.2
2016-05-27T00:13:29.859Z,91.2
2016-05-27T00:13:39.905Z,91.1
2016-05-27T00:13:49.827Z,91
2016-05-27T00:13:59.831Z,91
2016-05-27T00:14:09.831Z,91.1
2016-05-27T00:14:19.753Z,91.2
2016-05-27T00:14:29.831Z,90.9
2016-05-27T00:14:39.831Z,90.9
2016-05-27T00:14:49.816Z,90.8
2016-05-27T00:14:59.833Z,91
2016-05-27T00:15:09.818Z,91
2016-05-27T00:15:19.818Z,91.2
2016-05-27T00:15:29.818Z,91
2016-05-27T00:15:39.833Z,90.7
2016-05-27T00:15:49.802Z,91.4
2016-05-27T00:15:59.835Z,91.4
2016-05-27T00:16:09.804Z,91.3
2016-05-27T00:16:19.710Z,91.3
2016-05-27T00:16:29.788Z,91
2016-05-27T00:16:39.835Z,91
2016-05-27T00:16:49.663Z,90.7
2016-05-27T00:16:59.823Z,91.1
2016-05-27T00:17:09.791Z,91
2016-05-27T00:17:19.635Z,90.9
2016-05-27T00:17:29.791Z,90.6
2016-05-27T00:17:39.791Z,90.6
2016-05-27T00:17:49.776Z,90.9
2016-05-27T00:17:59.763Z,91
2016-05-27T00:18:09.763Z,90.9
2016-05-27T00:18:19.951Z,91.4
2016-05-27T00:18:30.076Z,91.3
2016-05-27T00:18:39.966Z,91.1
2016-05-27T00:18:49.638Z,91
2016-05-27T00:19:00.126Z,91.4
2016-05-27T00:19:09.844Z,91.2
2016-05-27T00:19:19.751Z,91.3
2016-05-27T00:19:30.094Z,91.1
2016-05-27T00:19:39.782Z,91.3
2016-05-27T00:19:49.751Z,91.2
2016-05-27T00:20:00.425Z,91
2016-05-27T00:20:09.754Z,91.1
2016-05-27T00:20:19.738Z,91.1
2016-05-27T00:20:29.707Z,91.4
2016-05-27T00:20:39.738Z,91.5
2016-05-27T00:20:49.722Z,91.4
2016-05-27T00:20:59.615Z,91.3
2016-05-27T00:21:09.568Z,91.3
2016-05-27T00:21:19.552Z,91.5
2016-05-27T00:21:29.709Z,91.2
2016-05-27T00:21:39.568Z,91.4
2016-05-27T00:21:49.740Z,91.4
2016-05-27T00:21:59.742Z,91.3
2016-05-27T00:22:09.695Z,91.2
2016-05-27T00:22:19.554Z,91.4
2016-05-27T00:22:29.398Z,91.3
2016-05-27T00:22:39.554Z,91.2
2016-05-27T00:22:49.695Z,91.3
2016-05-27T00:22:59.714Z,91.2
2016-05-27T00:23:09.682Z,91.3
2016-05-27T00:23:19.682Z,91.2
2016-05-27T00:23:29.682Z,91.5
2016-05-27T00:23:39.557Z,91.3
2016-05-27T00:23:49.542Z,91.1
2016-05-27T00:23:59.671Z,91.2
2016-05-27T00:24:09.686Z,91.1
2016-05-27T00:24:19.671Z,91.2
2016-05-27T00:24:29.983Z,91.4
2016-05-27T00:24:39.655Z,91.1
2016-05-27T00:24:49.999Z,91.4
2016-05-27T00:25:00.048Z,91.4
2016-05-27T00:25:09.720Z,91.4
2016-05-27T00:25:19.642Z,91.3
2016-05-27T00:25:29.501Z,91.4
2016-05-27T00:25:39.563Z,90.9
2016-05-27T00:25:49.642Z,91
2016-05-27T00:25:59.488Z,91
2016-05-27T00:26:09.645Z,90.8
2016-05-27T00:26:19.535Z,91.2
2016-05-27T00:26:29.504Z,91
2016-05-27T00:26:39.457Z,91
2016-05-27T00:26:49.473Z,90.8
2016-05-27T00:26:59.459Z,91
2016-05-27T00:27:09.459Z,90.8
2016-05-27T00:27:19.615Z,90.8
2016-05-27T00:27:29.318Z,90.8
2016-05-27T00:27:39.631Z,91
2016-05-27T00:27:49.475Z,90.9
2016-05-27T00:27:59.462Z,91.1
2016-05-27T00:28:09.603Z,90.9
2016-05-27T00:28:19.603Z,91.1
2016-05-27T00:28:29.431Z,91.4
2016-05-27T00:28:39.603Z,91.2
2016-05-27T00:28:49.446Z,91.5
2016-05-27T00:28:59.480Z,91
2016-05-27T00:29:09.589Z,91.1
2016-05-27T00:29:19.620Z,91.4
2016-05-27T00:29:29.573Z,91.4
2016-05-27T00:29:39.589Z,91.5
2016-05-27T00:29:49.870Z,91.5
2016-05-27T00:29:59.576Z,91.4
2016-05-27T00:30:09.561Z,91.2
2016-05-27T00:30:19.576Z,91.2
2016-05-27T00:30:29.420Z,91.1
2016-05-27T00:30:39.576Z,91.2
2016-05-27T00:30:49.795Z,91.2
2016-05-27T00:30:59.548Z,91.3
2016-05-27T00:31:09.548Z,91.5
2016-05-27T00:31:19.517Z,91.3
2016-05-27T00:31:29.564Z,91.4
2016-05-27T00:31:39.251Z,91.6
2016-05-27T00:31:49.533Z,91.8
2016-05-27T00:31:59.551Z,91.6
2016-05-27T00:32:09.536Z,91.3
2016-05-27T00:32:19.395Z,91.4
2016-05-27T00:32:29.536Z,91.5
2016-05-27T00:32:39.536Z,91.5
2016-05-27T00:32:49.520Z,91.2
2016-05-27T00:32:59.538Z,91.2
2016-05-27T00:33:09.522Z,91.4
2016-05-27T00:33:19.788Z,91.3
2016-05-27T00:33:30.084Z,91.5
2016-05-27T00:33:39.522Z,91.5
2016-05-27T00:33:49.366Z,91.5
2016-05-27T00:34:00.525Z,91.8
2016-05-27T00:34:09.978Z,91.6
2016-05-27T00:34:20.384Z,92.1
2016-05-27T00:34:29.400Z,91.7
2016-05-27T00:34:39.509Z,92.2
2016-05-27T00:34:49.509Z,92.3
2016-05-27T00:34:59.496Z,92
2016-05-27T00:35:09.527Z,91.8
2016-05-27T00:35:19.496Z,91.8
2016-05-27T00:35:29.480Z,91.8
2016-05-27T00:35:39.496Z,91.7
2016-05-27T00:35:49.496Z,92.3
2016-05-27T00:35:59.467Z,92.2
2016-05-27T00:36:09.467Z,92.2
2016-05-27T00:36:19.155Z,91.9
2016-05-27T00:36:29.467Z,92.2
2016-05-27T00:36:39.296Z,92
2016-05-27T00:36:49.452Z,92.1
2016-05-27T00:36:59.470Z,92.1
2016-05-27T00:37:09.455Z,92.1
2016-05-27T00:37:19.455Z,92.1
2016-05-27T00:37:29.470Z,92.3
2016-05-27T00:37:39.283Z,92.1
2016-05-27T00:37:49.299Z,92
2016-05-27T00:37:59.442Z,92
2016-05-27T00:38:09.427Z,92
2016-05-27T00:38:19.442Z,92.2
2016-05-27T00:38:29.286Z,92
2016-05-27T00:38:39.442Z,92.2
2016-05-27T00:38:49.286Z,92.3
2016-05-27T00:38:59.429Z,91.9
2016-05-27T00:39:09.272Z,92.1
2016-05-27T00:39:19.257Z,91.9
2016-05-27T00:39:29.444Z,91.8
2016-05-27T00:39:39.257Z,92
2016-05-27T00:39:49.429Z,92.3
2016-05-27T00:39:59.385Z,92.3
2016-05-27T00:40:09.400Z,91.8
2016-05-27T00:40:19.275Z,92
2016-05-27T00:40:29.400Z,92.1
2016-05-27T00:40:39.416Z,91.8
2016-05-27T00:40:49.228Z,91.8
2016-05-27T00:40:59.388Z,91.7
2016-05-27T00:41:09.388Z,92
2016-05-27T00:41:19.388Z,91.8
2016-05-27T00:41:29.388Z,92.1
2016-05-27T00:41:39.231Z,91.7
2016-05-27T00:41:49.403Z,92
2016-05-27T00:41:59.218Z,92
2016-05-27T00:42:09.202Z,91.8
2016-05-27T00:42:19.343Z,91.8
2016-05-27T00:42:29.405Z,91.7
2016-05-27T00:42:39.374Z,91.7
2016-05-27T00:42:49.374Z,92
2016-05-27T00:42:59.361Z,91.9
2016-05-27T00:43:09.205Z,91.7
2016-05-27T00:43:19.361Z,92
2016-05-27T00:43:29.346Z,92.1
2016-05-27T00:43:39.330Z,91.9
2016-05-27T00:43:49.174Z,91.8
2016-05-27T00:43:59.349Z,92.5
2016-05-27T00:44:09.177Z,92.5
2016-05-27T00:44:19.177Z,92.5
2016-05-27T00:44:29.349Z,92.5
2016-05-27T00:44:39.630Z,92
2016-05-27T00:44:49.333Z,91.9
2016-05-27T00:44:59.164Z,92
2016-05-27T00:45:09.321Z,91.9
2016-05-27T00:45:19.164Z,92
2016-05-27T00:45:29.321Z,92.7
2016-05-27T00:45:39.305Z,92.4
2016-05-27T00:45:49.336Z,92.2
2016-05-27T00:45:59.307Z,92.5
2016-05-27T00:46:09.307Z,92.7
2016-05-27T00:46:19.135Z,92.3
2016-05-27T00:46:29.323Z,92.4
2016-05-27T00:46:39.291Z,92.6
2016-05-27T00:46:49.135Z,92.4
2016-05-27T00:46:59.482Z,92.3
2016-05-27T00:47:09.154Z,92.5
2016-05-27T00:47:19.279Z,92.6
2016-05-27T00:47:29.279Z,92.7
2016-05-27T00:47:39.122Z,92.7
2016-05-27T00:47:49.232Z,92.4
2016-05-27T00:47:59.265Z,92.3
2016-05-27T00:48:09.249Z,92.7
2016-05-27T00:48:19.359Z,93
2016-05-27T00:48:28.828Z,92.9
2016-05-27T00:48:39.421Z,93.1
2016-05-27T00:48:49.249Z,93.1
2016-05-27T00:48:59.066Z,92.7
2016-05-27T00:49:09.550Z,92.8
2016-05-27T00:49:19.519Z,93.2
2016-05-27T00:49:29.691Z,93.1
2016-05-27T00:49:39.253Z,93.2
2016-05-27T00:49:49.253Z,92.8
2016-05-27T00:49:58.974Z,92.8
2016-05-27T00:50:09.099Z,92.8
2016-05-27T00:50:19.240Z,93.1
2016-05-27T00:50:29.255Z,93.2
2016-05-27T00:50:39.240Z,93.2
2016-05-27T00:50:49.052Z,93.2
2016-05-27T00:50:59.227Z,92.8
2016-05-27T00:51:09.227Z,92.8
2016-05-27T00:51:19.055Z,93.3
2016-05-27T00:51:28.915Z,92.7
2016-05-27T00:51:39.212Z,92.8
2016-05-27T00:51:49.196Z,93
2016-05-27T00:51:59.042Z,93
2016-05-27T00:52:09.198Z,93.1
2016-05-27T00:52:19.198Z,92.7
2016-05-27T00:52:29.198Z,92.8
2016-05-27T00:52:39.198Z,93
2016-05-27T00:52:49.182Z,93
2016-05-27T00:52:59.185Z,92.7
2016-05-27T00:53:09.060Z,92.6
2016-05-27T00:53:19.170Z,92.7
2016-05-27T00:53:29.482Z,93
2016-05-27T00:53:39.029Z,93
2016-05-27T00:53:49.185Z,92.9
2016-05-27T00:53:59.001Z,92.5
2016-05-27T00:54:09.204Z,92.6
2016-05-27T00:54:19.220Z,92.4
2016-05-27T00:54:29.157Z,92.7
2016-05-27T00:54:39.157Z,92.3
2016-05-27T00:54:49.454Z,92.4
2016-05-27T00:54:59.143Z,92.6
2016-05-27T00:55:09.003Z,92.7
2016-05-27T00:55:19.143Z,92.7
2016-05-27T00:55:29.128Z,92.3
2016-05-27T00:55:39.003Z,92.8
2016-05-27T00:55:49.159Z,92.8
2016-05-27T00:55:59.146Z,92.7
2016-05-27T00:56:09.115Z,92.9
2016-05-27T00:56:19.162Z,92.7
2016-05-27T00:56:29.131Z,93
2016-05-27T00:56:38.990Z,92.9
2016-05-27T00:56:48.975Z,92.8
2016-05-27T00:56:58.962Z,92.8
2016-05-27T00:57:09.103Z,93
2016-05-27T00:57:19.134Z,92.8
2016-05-27T00:57:29.118Z,93
2016-05-27T00:57:39.103Z,93
2016-05-27T00:57:49.118Z,93
2016-05-27T00:57:59.105Z,92.7
2016-05-27T00:58:09.105Z,92.7
2016-05-27T00:58:19.089Z,93
2016-05-27T00:58:29.089Z,93
2016-05-27T00:58:38.933Z,93.1
2016-05-27T00:58:49.105Z,93
2016-05-27T00:58:58.921Z,93
2016-05-27T00:59:08.952Z,92.8
2016-05-27T00:59:18.937Z,92.7
2016-05-27T00:59:29.109Z,92.9
2016-05-27T00:59:39.077Z,92.4
2016-05-27T00:59:49.077Z,92.6
2016-05-27T00:59:59.079Z,93
2016-05-27T01:00:09.126Z,93
2016-05-27T01:00:19.048Z,92.8
2016-05-27T01:00:29.064Z,92.8
2016-05-27T01:00:38.907Z,92.7
2016-05-27T01:00:49.064Z,92.9
2016-05-27T01:00:59.050Z,92.9
2016-05-27T01:01:09.066Z,92.8
2016-05-27T01:01:19.050Z,92.7
2016-05-27T01:01:29.034Z,92.8
2016-05-27T01:01:39.034Z,92.9
2016-05-27T01:01:49.034Z,92.7
2016-05-27T01:01:59.054Z,92.3
2016-05-27T01:02:09.038Z,92.5
2016-05-27T01:02:19.023Z,92.5
2016-05-27T01:02:29.054Z,92.5
2016-05-27T01:02:39.038Z,92.6
2016-05-27T01:02:49.023Z,92.4
2016-05-27T01:02:59.009Z,92.3
2016-05-27T01:03:08.947Z,92.2
2016-05-27T01:03:19.009Z,92.3
2016-05-27T01:03:28.900Z,92.4
2016-05-27T01:03:39.134Z,92.1
2016-05-27T01:03:49.478Z,92
2016-05-27T01:03:59.059Z,92.6
2016-05-27T01:04:09.012Z,92.6
2016-05-27T01:04:18.887Z,92.4
2016-05-27T01:04:28.700Z,92.5
2016-05-27T01:04:38.872Z,92.6
2016-05-27T01:04:49.028Z,92.6
2016-05-27T01:04:58.999Z,92.5
2016-05-27T01:05:08.999Z,92.7
2016-05-27T01:05:18.983Z,92.6
2016-05-27T01:05:29.030Z,92.7
2016-05-27T01:05:38.983Z,92.8
2016-05-27T01:05:48.967Z,92.3
2016-05-27T01:05:58.970Z,92.4
2016-05-27T01:06:09.267Z,93
2016-05-27T01:06:18.955Z,92.6
2016-05-27T01:06:28.830Z,92.5
2016-05-27T01:06:38.955Z,92.6
2016-05-27T01:06:48.970Z,92.5
2016-05-27T01:06:58.958Z,92.6
2016-05-27T01:07:08.942Z,92.6
2016-05-27T01:07:18.786Z,92.6
2016-05-27T01:07:28.942Z,92.7
2016-05-27T01:07:38.942Z,92.8
2016-05-27T01:07:48.942Z,93.2
2016-05-27T01:07:58.928Z,93
2016-05-27T01:08:08.928Z,93.1
2016-05-27T01:08:18.772Z,93.5
2016-05-27T01:08:28.632Z,93.5
2016-05-27T01:08:38.913Z,93.7
2016-05-27T01:08:48.960Z,93.6
2016-05-27T01:08:58.916Z,93.6
2016-05-27T01:09:08.931Z,93.2
2016-05-27T01:09:18.931Z,93.2
2016-05-27T01:09:28.916Z,93.2
2016-05-27T01:09:38.916Z,93.3
2016-05-27T01:09:48.885Z,93.5
2016-05-27T01:09:58.887Z,93.5
2016-05-27T01:10:08.746Z,93.2
2016-05-27T01:10:18.887Z,93.4
2016-05-27T01:10:28.887Z,93.3
2016-05-27T01:10:38.902Z,93.3
2016-05-27T01:10:48.980Z,93.3
2016-05-27T01:10:58.874Z,93.3
2016-05-27T01:11:08.765Z,93.5
2016-05-27T01:11:18.733Z,93
2016-05-27T01:11:28.921Z,93.1
2016-05-27T01:11:38.858Z,93.3
2016-05-27T01:11:48.858Z,93.1
2016-05-27T01:11:58.861Z,92.9
2016-05-27T01:12:08.736Z,92.8
2016-05-27T01:12:18.846Z,93
2016-05-27T01:12:28.861Z,93.1
2016-05-27T01:12:38.846Z,93.1
2016-05-27T01:12:48.908Z,93.1
2016-05-27T01:12:58.689Z,93.2
2016-05-27T01:13:08.833Z,93.1
2016-05-27T01:13:18.833Z,93.3
2016-05-27T01:13:28.942Z,93.2
2016-05-27T01:13:38.833Z,92.8
2016-05-27T01:13:48.817Z,92.9
2016-05-27T01:13:58.692Z,93
2016-05-27T01:14:08.899Z,92.7
2016-05-27T01:14:18.836Z,92.9
2016-05-27T01:14:28.820Z,93
2016-05-27T01:14:38.680Z,92.7
2016-05-27T01:14:48.852Z,92.9
2016-05-27T01:14:58.555Z,92.5
2016-05-27T01:15:08.807Z,92.9
2016-05-27T01:15:18.651Z,92.4
2016-05-27T01:15:28.854Z,92.3
2016-05-27T01:15:38.807Z,92.3
2016-05-27T01:15:48.651Z,92.4
2016-05-27T01:15:58.794Z,92.5
2016-05-27T01:16:08.888Z,92.3
2016-05-27T01:16:18.779Z,92.6
2016-05-27T01:16:28.669Z,92.3
2016-05-27T01:16:38.794Z,92.5
2016-05-27T01:16:48.497Z,92.4
2016-05-27T01:16:58.794Z,93
2016-05-27T01:17:08.688Z,92.9
2016-05-27T01:17:18.782Z,92.9
2016-05-27T01:17:28.625Z,92.9
2016-05-27T01:17:38.750Z,92.9
2016-05-27T01:17:48.766Z,92.7
2016-05-27T01:17:58.610Z,92.9
2016-05-27T01:18:08.660Z,92.8
2016-05-27T01:18:18.753Z,92.7
2016-05-27T01:18:29.347Z,92.7
2016-05-27T01:18:38.660Z,92.5
2016-05-27T01:18:48.894Z,92.9
2016-05-27T01:18:58.785Z,92.5
2016-05-27T01:19:08.974Z,92.5
2016-05-27T01:19:18.771Z,92.6
2016-05-27T01:19:28.599Z,92.8
2016-05-27T01:19:38.771Z,92.6
2016-05-27T01:19:48.740Z,92.5
2016-05-27T01:19:58.755Z,92.6
2016-05-27T01:20:08.743Z,92.4
2016-05-27T01:20:18.727Z,92.3
2016-05-27T01:20:28.571Z,92.3
2016-05-27T01:20:38.571Z,92.5
2016-05-27T01:20:48.774Z,92.3
2016-05-27T01:20:58.711Z,92.5
2016-05-27T01:21:08.729Z,92.4
2016-05-27T01:21:18.698Z,92.4
2016-05-27T01:21:28.792Z,92.4
2016-05-27T01:21:38.542Z,92.5
2016-05-27T01:21:48.417Z,92.5
2016-05-27T01:21:58.682Z,92.5
2016-05-27T01:22:08.749Z,92.3
2016-05-27T01:22:18.686Z,92.7
2016-05-27T01:22:28.686Z,92.7
2016-05-27T01:22:38.717Z,92.5
2016-05-27T01:22:48.686Z,92.4
2016-05-27T01:22:58.671Z,92.4
2016-05-27T01:23:08.687Z,92.5
2016-05-27T01:23:18.687Z,92.4
2016-05-27T01:23:28.547Z,92.3
2016-05-27T01:23:38.515Z,92.3
2016-05-27T01:23:48.672Z,92.6
2016-05-27T01:23:58.515Z,92.5
2016-05-27T01:24:08.612Z,92.3
2016-05-27T01:24:18.721Z,92.7
2016-05-27T01:24:28.675Z,92.4
2016-05-27T01:24:38.643Z,92.6
2016-05-27T01:24:48.675Z,92.6
2016-05-27T01:24:58.503Z,92.3
2016-05-27T01:25:08.646Z,92.4
2016-05-27T01:25:18.490Z,92.4
2016-05-27T01:25:28.474Z,92.4
2016-05-27T01:25:38.662Z,92.3
2016-05-27T01:25:48.631Z,92.4
2016-05-27T01:25:58.631Z,92.4
2016-05-27T01:26:08.634Z,92.5
2016-05-27T01:26:18.649Z,92.6
2016-05-27T01:26:28.493Z,92.3
2016-05-27T01:26:38.462Z,92.5
2016-05-27T01:26:48.477Z,92.7
2016-05-27T01:26:58.634Z,92.7
2016-05-27T01:27:08.605Z,92.7
2016-05-27T01:27:18.934Z,92.8
2016-05-27T01:27:28.480Z,92.5
2016-05-27T01:27:38.699Z,92.5
2016-05-27T01:27:48.590Z,93
2016-05-27T01:27:58.449Z,92.7
2016-05-27T01:28:08.608Z,92.8
2016-05-27T01:28:18.608Z,92.7
2016-05-27T01:28:28.608Z,93
2016-05-27T01:28:38.593Z,92.8
2016-05-27T01:28:48.593Z,92.8
2016-05-27T01:28:58.640Z,92.7
2016-05-27T01:29:08.595Z,92.8
2016-05-27T01:29:18.423Z,92.7
2016-05-27T01:29:28.579Z,92.9
2016-05-27T01:29:38.423Z,93
2016-05-27T01:29:48.579Z,92.8
2016-05-27T01:29:58.407Z,93
2016-05-27T01:30:08.567Z,92.8
2016-05-27T01:30:18.442Z,93.2
2016-05-27T01:30:28.551Z,93.1
2016-05-27T01:30:38.410Z,93.2
2016-05-27T01:30:48.582Z,92.8
2016-05-27T01:30:58.598Z,93.2
2016-05-27T01:31:08.569Z,92.8
2016-05-27T01:31:18.553Z,93
2016-05-27T01:31:28.459Z,92.9
2016-05-27T01:31:38.584Z,93
2016-05-27T01:31:48.537Z,93.2
2016-05-27T01:31:58.522Z,92.9
2016-05-27T01:32:08.415Z,93.3
2016-05-27T01:32:18.556Z,93.1
2016-05-27T01:32:28.540Z,92.8
2016-05-27T01:32:38.525Z,93.2
2016-05-27T01:32:48.540Z,93
2016-05-27T01:32:58.587Z,93.1
2016-05-27T01:33:08.387Z,93
2016-05-27T01:33:18.496Z,93
2016-05-27T01:33:28.231Z,93.3
2016-05-27T01:33:38.746Z,92.8
2016-05-27T01:33:48.559Z,92.8
2016-05-27T01:33:58.653Z,93.1
2016-05-27T01:34:08.359Z,93.2
2016-05-27T01:34:18.531Z,93.1
2016-05-27T01:34:28.968Z,93.1
2016-05-27T01:34:38.328Z,93.2
2016-05-27T01:34:48.484Z,93.2
2016-05-27T01:34:58.515Z,93.2
2016-05-27T01:35:08.470Z,93
2016-05-27T01:35:18.470Z,93
2016-05-27T01:35:28.361Z,93.2
2016-05-27T01:35:38.501Z,93.1
2016-05-27T01:35:48.330Z,93.1
2016-05-27T01:35:58.455Z,93.3
2016-05-27T01:36:08.347Z,93
2016-05-27T01:36:18.300Z,93.1
2016-05-27T01:36:28.347Z,93.1
2016-05-27T01:36:38.441Z,93.1
2016-05-27T01:36:48.160Z,93
2016-05-27T01:36:58.472Z,93.2
2016-05-27T01:37:08.445Z,93
2016-05-27T01:37:18.445Z,93.1
2016-05-27T01:37:28.445Z,93.1
2016-05-27T01:37:38.476Z,93
2016-05-27T01:37:48.507Z,93.2
2016-05-27T01:37:58.273Z,93
2016-05-27T01:38:08.447Z,93.1
2016-05-27T01:38:18.275Z,93.4
2016-05-27T01:38:28.416Z,93.5
2016-05-27T01:38:38.259Z,93.7
2016-05-27T01:38:48.431Z,93.4
2016-05-27T01:38:58.431Z,93.5
2016-05-27T01:39:08.450Z,93.4
2016-05-27T01:39:18.403Z,93.5
2016-05-27T01:39:28.403Z,93.5
2016-05-27T01:39:38.419Z,93.3
2016-05-27T01:39:48.294Z,93.5
2016-05-27T01:39:58.419Z,93.4
2016-05-27T01:40:08.280Z,93.6
2016-05-27T01:40:18.405Z,93.5
2016-05-27T01:40:28.108Z,93.1
2016-05-27T01:40:38.374Z,93.3
2016-05-27T01:40:48.296Z,92.9
2016-05-27T01:40:58.405Z,92.9
2016-05-27T01:41:08.752Z,93.4
2016-05-27T01:41:18.377Z,93.3
2016-05-27T01:41:28.377Z,93.3
2016-05-27T01:41:38.377Z,93.1
2016-05-27T01:41:48.377Z,93.3
2016-05-27T01:41:58.392Z,93.4
2016-05-27T01:42:08.239Z,93.5
2016-05-27T01:42:18.349Z,93.6
2016-05-27T01:42:28.442Z,93.4
2016-05-27T01:42:38.661Z,93.5
2016-05-27T01:42:48.349Z,93.5
2016-05-27T01:42:58.349Z,93.5
2016-05-27T01:43:08.227Z,93.4
2016-05-27T01:43:18.680Z,93.6
2016-05-27T01:43:28.055Z,93.7
2016-05-27T01:43:38.180Z,93.5
2016-05-27T01:43:48.352Z,93.5
2016-05-27T01:43:58.320Z,93.3
2016-05-27T01:44:08.260Z,93.2
2016-05-27T01:44:18.322Z,92.9
2016-05-27T01:44:28.166Z,93.5
2016-05-27T01:44:38.166Z,93.5
2016-05-27T01:44:48.150Z,93.1
2016-05-27T01:44:58.307Z,93.7
2016-05-27T01:45:08.435Z,93.3
2016-05-27T01:45:18.325Z,93.5
2016-05-27T01:45:28.294Z,93.7
2016-05-27T01:45:38.294Z,93.4
2016-05-27T01:45:48.310Z,93.3
2016-05-27T01:45:58.294Z,93.3
2016-05-27T01:46:08.141Z,93.2
2016-05-27T01:46:18.141Z,93.2
2016-05-27T01:46:28.328Z,93.5
2016-05-27T01:46:38.281Z,93.3
2016-05-27T01:46:48.281Z,93.5
2016-05-27T01:46:58.297Z,93.4
2016-05-27T01:47:08.362Z,93.5
2016-05-27T01:47:18.315Z,93.6
2016-05-27T01:47:28.268Z,93.5
2016-05-27T01:47:38.127Z,93.5
2016-05-27T01:47:48.112Z,93.6
2016-05-27T01:47:58.268Z,94
2016-05-27T01:48:08.255Z,93.8
2016-05-27T01:48:18.255Z,93.6
2016-05-27T01:48:28.255Z,93.7
2016-05-27T01:48:38.505Z,93.7
2016-05-27T01:48:49.068Z,93.7
2016-05-27T01:48:58.396Z,93.5
2016-05-27T01:49:08.416Z,93.5
2016-05-27T01:49:18.448Z,93.5
2016-05-27T01:49:29.338Z,93.5
2016-05-27T01:49:38.245Z,93.5
2016-05-27T01:49:48.245Z,93.6
2016-05-27T01:49:58.338Z,93.5
2016-05-27T01:50:08.110Z,93.8
2016-05-27T01:50:18.267Z,93.6
2016-05-27T01:50:27.798Z,93.6
2016-05-27T01:50:38.563Z,93.5
2016-05-27T01:50:48.079Z,93.6
2016-05-27T01:50:58.220Z,93.6
2016-05-27T01:51:08.242Z,93.6
2016-05-27T01:51:18.210Z,94
2016-05-27T01:51:28.242Z,93.6
2016-05-27T01:51:38.226Z,93.6
2016-05-27T01:51:48.304Z,93.6
2016-05-27T01:51:58.335Z,93.8
2016-05-27T01:52:08.248Z,93.9
2016-05-27T01:52:18.248Z,94.2
2016-05-27T01:52:28.107Z,94.2
2016-05-27T01:52:38.498Z,94
2016-05-27T01:52:48.232Z,94
2016-05-27T01:52:58.232Z,94.2
2016-05-27T01:53:08.254Z,94.3
2016-05-27T01:53:18.098Z,94.3
2016-05-27T01:53:28.270Z,93.8
2016-05-27T01:53:38.083Z,94
2016-05-27T01:53:48.270Z,94.7
2016-05-27T01:53:57.942Z,94.4
2016-05-27T01:54:08.259Z,94.2
2016-05-27T01:54:18.259Z,94
2016-05-27T01:54:28.196Z,94
2016-05-27T01:54:38.306Z,93.8
2016-05-27T01:54:48.243Z,94
2016-05-27T01:54:58.087Z,93.8
2016-05-27T01:55:08.253Z,93.7
2016-05-27T01:55:18.300Z,94.1
2016-05-27T01:55:28.238Z,94
2016-05-27T01:55:38.066Z,94
2016-05-27T01:55:48.206Z,94.2
2016-05-27T01:55:58.269Z,94.3
2016-05-27T01:56:08.090Z,94
2016-05-27T01:56:18.200Z,94.2
2016-05-27T01:56:28.231Z,94
2016-05-27T01:56:38.528Z,93.8
2016-05-27T01:56:48.215Z,94.4
2016-05-27T01:56:58.200Z,93.8
2016-05-27T01:57:08.210Z,94.2
2016-05-27T01:57:18.241Z,93.8
2016-05-27T01:57:28.069Z,94.1
2016-05-27T01:57:38.241Z,94.5
2016-05-27T01:57:48.194Z,94
2016-05-27T01:57:58.225Z,94.3
2016-05-27T01:58:08.079Z,94.1
2016-05-27T01:58:18.063Z,93.8
2016-05-27T01:58:28.188Z,94.3
2016-05-27T01:58:38.204Z,93.9
2016-05-27T01:58:48.220Z,93.9
2016-05-27T01:58:58.204Z,94.1
2016-05-27T01:59:08.071Z,93.7
2016-05-27T01:59:18.243Z,94
2016-05-27T01:59:28.196Z,94.2
2016-05-27T01:59:38.196Z,94
2016-05-27T01:59:48.071Z,93.9
2016-05-27T01:59:58.228Z,93.9
2016-05-27T02:00:08.187Z,93.9
2016-05-27T02:00:18.187Z,94
2016-05-27T02:00:28.218Z,94
2016-05-27T02:00:38.062Z,93.8
2016-05-27T02:00:48.171Z,94.3
2016-05-27T02:00:58.171Z,94.2
2016-05-27T02:01:08.037Z,93.5
2016-05-27T02:01:18.224Z,93.8
2016-05-27T02:01:28.177Z,93.8
2016-05-27T02:01:38.162Z,93.7
2016-05-27T02:01:48.162Z,93.5
2016-05-27T02:01:58.193Z,93.6
2016-05-27T02:02:08.009Z,93.5
2016-05-27T02:02:18.134Z,93.6
2016-05-27T02:02:28.166Z,93.7
2016-05-27T02:02:38.150Z,93.7
2016-05-27T02:02:48.134Z,93.5
2016-05-27T02:02:58.134Z,93.8
2016-05-27T02:03:08.031Z,93.7
2016-05-27T02:03:18.156Z,93.8
2016-05-27T02:03:28.781Z,93.9
2016-05-27T02:03:38.187Z,93.8
2016-05-27T02:03:48.031Z,93.7
2016-05-27T02:03:58.765Z,93.7
2016-05-27T02:04:08.270Z,93.6
2016-05-27T02:04:18.130Z,93.6
2016-05-27T02:04:28.052Z,93.9
2016-05-27T02:04:38.130Z,93.5
2016-05-27T02:04:48.114Z,93.7
2016-05-27T02:04:58.098Z,93.7
2016-05-27T02:05:08.117Z,93.5
2016-05-27T02:05:17.992Z,93.8
2016-05-27T02:05:27.945Z,93.6
2016-05-27T02:05:38.117Z,93.7
2016-05-27T02:05:48.101Z,93.9
2016-05-27T02:05:57.976Z,94.2
2016-05-27T02:06:07.965Z,94.4
2016-05-27T02:06:17.949Z,94.4
2016-05-27T02:06:28.090Z,94.3
2016-05-27T02:06:38.121Z,94.1
2016-05-27T02:06:48.105Z,94
2016-05-27T02:06:57.918Z,94
2016-05-27T02:07:08.094Z,93.6
2016-05-27T02:07:18.094Z,93.5
2016-05-27T02:07:28.109Z,93.9
2016-05-27T02:07:38.078Z,93.9
2016-05-27T02:07:48.063Z,93.8
2016-05-27T02:07:58.078Z,93.5
2016-05-27T02:08:07.910Z,93.7
2016-05-27T02:08:18.051Z,94.1
2016-05-27T02:08:27.910Z,93.5
2016-05-27T02:08:38.067Z,93.4
2016-05-27T02:08:48.051Z,93.5
2016-05-27T02:08:58.051Z,93.6
2016-05-27T02:09:08.053Z,93.3
2016-05-27T02:09:18.053Z,93.4
2016-05-27T02:09:28.053Z,93.4
2016-05-27T02:09:38.037Z,93.7
2016-05-27T02:09:48.053Z,93.5
2016-05-27T02:09:58.022Z,93.3
2016-05-27T02:10:07.869Z,93.4
2016-05-27T02:10:18.026Z,92.9
2016-05-27T02:10:27.869Z,93.3
2016-05-27T02:10:37.869Z,93.5
2016-05-27T02:10:48.026Z,93.3
2016-05-27T02:10:58.026Z,93.3
2016-05-27T02:11:08.012Z,93.5
2016-05-27T02:11:18.012Z,93.5
2016-05-27T02:11:27.996Z,93.4
2016-05-27T02:11:37.996Z,93.5
2016-05-27T02:11:47.856Z,93.2
2016-05-27T02:11:58.043Z,93.4
2016-05-27T02:12:08.032Z,93.3
2016-05-27T02:12:17.829Z,93.4
2016-05-27T02:12:28.000Z,93
2016-05-27T02:12:37.985Z,93.4
2016-05-27T02:12:47.985Z,93.5
2016-05-27T02:12:58.000Z,93.5
2016-05-27T02:13:07.832Z,93.6
2016-05-27T02:13:17.675Z,93.4
2016-05-27T02:13:28.050Z,93.8
2016-05-27T02:13:37.988Z,93.7
2016-05-27T02:13:47.972Z,93.5
2016-05-27T02:13:57.972Z,93.7
2016-05-27T02:14:07.974Z,93.5